Time;durP1;ratioP1;P1;durP2;ratioP2;P2;SDS_P1;SDS_P2;PMS_P1;PMS_P2;Temp;Humidity;BMP_temperature;BMP_pressure;BME280_temperature;BME280_humidity;BME280_pressure;Samples;Min_cycle;Max_cycle;Signal;HPM_P1;HPM_P2
2022/04/08 00:02:02;;;;;;;5.68;0.75;;;18.70;99.90;;;;;;5068389;28;20578;-71
2022/04/08 00:04:32;;;;;;;5.03;1.00;;;18.70;99.90;;;;;;5073174;28;20185;-70
2022/04/08 00:07:03;;;;;;;5.10;1.38;;;18.80;99.90;;;;;;5069476;28;20207;-70
2022/04/08 00:09:34;;;;;;;3.15;0.90;;;18.90;99.90;;;;;;5078525;28;20656;-70
2022/04/08 00:12:05;;;;;;;8.52;1.38;;;18.90;99.90;;;;;;5078599;28;20212;-70
2022/04/08 00:14:35;;;;;;;5.30;1.30;;;19.00;99.90;;;;;;5071498;28;20200;-72
2022/04/08 00:17:08;;;;;;;6.63;1.50;;;19.10;99.90;;;;;;5073069;28;20184;-70
2022/04/08 00:19:39;;;;;;;7.65;1.25;;;19.20;99.90;;;;;;5073150;28;20239;-70
2022/04/08 00:22:10;;;;;;;4.95;1.40;;;19.30;99.90;;;;;;5073619;28;20242;-70
2022/04/08 00:24:43;;;;;;;5.05;0.90;;;19.40;99.90;;;;;;5074142;28;20196;-70
2022/04/08 00:27:13;;;;;;;8.27;1.35;;;19.50;99.90;;;;;;5069095;28;20535;-70
2022/04/08 00:29:44;;;;;;;5.50;1.20;;;19.60;99.90;;;;;;5075373;28;20197;-70
2022/04/08 00:32:16;;;;;;;4.97;1.08;;;19.70;99.90;;;;;;5073282;28;20231;-69
2022/04/08 00:34:47;;;;;;;5.75;0.90;;;19.80;99.90;;;;;;5072623;28;20186;-71
2022/04/08 00:37:18;;;;;;;6.85;2.28;;;19.70;99.90;;;;;;5073243;28;20224;-69
2022/04/08 00:39:48;;;;;;;5.55;1.33;;;19.80;99.90;;;;;;5075973;28;20189;-70
2022/04/08 00:42:19;;;;;;;4.35;1.00;;;19.80;99.90;;;;;;5073024;28;20200;-70
2022/04/08 00:44:50;;;;;;;5.78;1.40;;;20.00;99.90;;;;;;5062065;28;20185;-70
2022/04/08 00:47:22;;;;;;;11.00;1.38;;;20.10;99.90;;;;;;5075379;28;20595;-70
2022/04/08 00:49:54;;;;;;;5.90;1.10;;;20.40;99.90;;;;;;5074546;28;20304;-71
2022/04/08 00:52:25;;;;;;;6.68;1.02;;;20.70;99.90;;;;;;5080890;28;20216;-70
2022/04/08 00:54:57;;;;;;;6.93;1.10;;;20.90;99.90;;;;;;5072198;28;20189;-70
2022/04/08 00:57:28;;;;;;;8.25;0.93;;;21.20;99.90;;;;;;5076319;28;20185;-70
2022/04/08 00:59:59;;;;;;;10.63;1.38;;;21.30;99.90;;;;;;5078886;28;20181;-69
2022/04/08 01:02:32;;;;;;;6.75;1.10;;;21.30;99.90;;;;;;5074121;28;20229;-70
2022/04/08 01:05:02;;;;;;;6.75;1.15;;;21.10;99.90;;;;;;5079447;28;20591;-69
2022/04/08 01:07:34;;;;;;;8.68;1.25;;;21.10;99.90;;;;;;5074019;28;20189;-69
2022/04/08 01:10:05;;;;;;;6.75;1.00;;;21.20;99.90;;;;;;5083893;28;20195;-72
2022/04/08 01:12:36;;;;;;;6.57;0.70;;;21.50;99.90;;;;;;5076184;28;20245;-69
2022/04/08 01:15:07;;;;;;;3.97;0.82;;;21.60;99.90;;;;;;5064966;28;20192;-69
2022/04/08 01:17:40;;;;;;;3.28;0.80;;;21.80;99.90;;;;;;5081234;28;20192;-71
2022/04/08 01:20:11;;;;;;;2.63;0.40;;;21.80;99.90;;;;;;5071971;28;20216;-69
2022/04/08 01:22:42;;;;;;;4.38;0.90;;;22.00;99.90;;;;;;5072383;28;20200;-71
2022/04/08 01:25:15;;;;;;;4.85;0.82;;;22.30;99.90;;;;;;5076727;28;20193;-69
2022/04/08 01:27:46;;;;;;;4.80;0.70;;;22.40;99.90;;;;;;5073185;28;20204;-70
2022/04/08 01:30:17;;;;;;;5.55;0.73;;;22.60;99.90;;;;;;5065340;28;20189;-69
2022/04/08 01:32:47;;;;;;;5.07;0.60;;;22.60;99.90;;;;;;5075303;28;20209;-70
2022/04/08 01:35:18;;;;;;;2.88;0.30;;;22.80;99.90;;;;;;5077048;28;20645;-72
2022/04/08 01:37:49;;;;;;;3.97;0.50;;;22.90;99.90;;;;;;5072255;28;20247;-73
2022/04/08 01:40:21;;;;;;;5.72;0.55;;;23.00;99.90;;;;;;5077638;28;20189;-70
2022/04/08 01:42:52;;;;;;;3.78;0.50;;;23.20;99.90;;;;;;5075853;28;20635;-69
2022/04/08 01:45:23;;;;;;;4.85;0.70;;;23.20;99.90;;;;;;5067819;28;20189;-71
2022/04/08 01:47:53;;;;;;;3.30;0.70;;;23.30;99.90;;;;;;5077450;28;20189;-71
2022/04/08 01:50:24;;;;;;;5.60;0.60;;;23.30;99.90;;;;;;5069185;28;20282;-71
2022/04/08 01:52:55;;;;;;;1.75;0.55;;;23.20;99.90;;;;;;5073047;28;20212;-71
2022/04/08 01:55:28;;;;;;;4.47;1.00;;;23.10;99.90;;;;;;5074377;28;20181;-74
2022/04/08 01:57:59;;;;;;;5.03;0.82;;;23.10;99.90;;;;;;5074441;28;20185;-74
2022/04/08 02:00:29;;;;;;;3.13;0.43;;;23.10;99.90;;;;;;5081932;28;20212;-71
2022/04/08 02:03:00;;;;;;;4.70;0.60;;;23.20;99.90;;;;;;5072709;28;20192;-74
2022/04/08 02:05:31;;;;;;;5.00;0.60;;;23.20;99.90;;;;;;5073532;28;20185;-70
2022/04/08 02:08:02;;;;;;;4.68;0.50;;;23.20;99.90;;;;;;5074669;28;20268;-69
2022/04/08 02:10:34;;;;;;;2.15;0.50;;;23.30;99.90;;;;;;5067806;28;20243;-70
2022/04/08 02:13:05;;;;;;;5.03;0.80;;;23.30;99.90;;;;;;5083918;28;20238;-75
2022/04/08 02:15:36;;;;;;;4.13;0.50;;;23.40;99.90;;;;;;5067783;28;20645;-71
2022/04/08 02:18:08;;;;;;;7.03;0.93;;;23.60;99.90;;;;;;5077531;28;20192;-69
2022/04/08 02:20:39;;;;;;;5.13;0.80;;;23.80;99.90;;;;;;5072302;28;20660;-70
2022/04/08 02:23:10;;;;;;;3.60;0.70;;;23.80;99.90;;;;;;5080820;28;20185;-72
2022/04/08 02:25:43;;;;;;;2.88;0.52;;;23.60;99.90;;;;;;5075666;28;20239;-71
2022/04/08 02:28:13;;;;;;;3.80;0.90;;;23.70;99.90;;;;;;5076026;28;20562;-72
2022/04/08 02:30:44;;;;;;;7.15;0.77;;;23.70;99.90;;;;;;5068148;28;20185;-70
2022/04/08 02:33:15;;;;;;;2.42;0.50;;;23.80;99.90;;;;;;5075772;28;20197;-70
2022/04/08 02:35:45;;;;;;;5.22;0.63;;;24.00;99.90;;;;;;5074367;28;20193;-70
2022/04/08 02:38:16;;;;;;;2.95;0.60;;;24.10;99.90;;;;;;5075770;28;20201;-78
2022/04/08 02:40:48;;;;;;;3.38;0.60;;;24.10;99.90;;;;;;5075547;28;20694;-77
2022/04/08 02:43:19;;;;;;;3.08;0.65;;;24.10;99.90;;;;;;5075392;28;20189;-77
2022/04/08 02:45:50;;;;;;;2.42;0.55;;;24.10;99.90;;;;;;5075765;28;20193;-76
2022/04/08 02:48:20;;;;;;;7.05;0.85;;;24.00;99.90;;;;;;5075879;28;20200;-78
2022/04/08 02:50:51;;;;;;;5.30;0.90;;;24.00;99.90;;;;;;5075196;28;20700;-75
2022/04/08 02:53:22;;;;;;;3.75;0.60;;;24.00;99.90;;;;;;5075879;28;20193;-70
2022/04/08 02:55:54;;;;;;;5.38;0.93;;;23.70;99.90;;;;;;5075726;28;20208;-80
2022/04/08 02:58:25;;;;;;;3.55;0.55;;;23.00;99.90;;;;;;5075895;28;20616;-75
2022/04/08 03:00:59;;;;;;;3.40;0.63;;;22.70;99.90;;;;;;5071930;28;20224;-80
2022/04/08 03:03:30;;;;;;;2.72;0.60;;;22.40;99.90;;;;;;5067776;28;20189;-85
2022/04/08 03:06:01;;;;;;;4.13;0.77;;;22.00;99.90;;;;;;5074043;28;20189;-78
2022/04/08 03:08:33;;;;;;;1.02;0.30;;;21.70;99.90;;;;;;5055438;28;20201;-80
2022/04/08 03:11:05;;;;;;;2.88;0.45;;;21.60;99.90;;;;;;5076379;28;20196;-76
2022/04/08 03:13:36;;;;;;;3.72;0.80;;;21.60;99.90;;;;;;5073855;28;20181;-79
2022/04/08 03:16:07;;;;;;;2.95;0.50;;;21.80;99.90;;;;;;5074742;28;20189;-78
2022/04/08 03:18:38;;;;;;;3.60;0.60;;;21.90;99.90;;;;;;5074066;28;20251;-81
2022/04/08 03:21:09;;;;;;;6.32;1.10;;;21.90;99.90;;;;;;5074359;28;20239;-77
2022/04/08 03:23:40;;;;;;;5.47;0.80;;;22.00;99.90;;;;;;5077591;28;20181;-81
2022/04/08 03:26:12;;;;;;;4.57;0.98;;;22.10;99.90;;;;;;5074069;28;20189;-82
2022/04/08 03:28:43;;;;;;;8.48;1.02;;;22.10;99.90;;;;;;5074291;28;20189;-85
2022/04/08 03:31:16;;;;;;;7.82;0.90;;;22.10;99.90;;;;;;5075326;28;20188;-76
2022/04/08 03:33:47;;;;;;;7.25;0.90;;;22.00;99.90;;;;;;5071288;28;20192;-72
2022/04/08 03:36:20;;;;;;;7.38;1.10;;;22.00;99.90;;;;;;5079590;28;20208;-83
2022/04/08 03:38:50;;;;;;;9.38;0.90;;;22.00;99.90;;;;;;5079244;28;20196;-77
2022/04/08 03:41:23;;;;;;;7.70;0.80;;;22.10;99.90;;;;;;5074381;28;20193;-75
2022/04/08 03:43:53;;;;;;;5.38;0.65;;;22.10;99.90;;;;;;5074488;28;20238;-81
2022/04/08 03:46:24;;;;;;;5.38;0.77;;;22.10;99.90;;;;;;5079337;28;20181;-75
2022/04/08 03:48:54;;;;;;;4.50;0.82;;;22.00;99.90;;;;;;5077281;28;20188;-73
2022/04/08 03:51:25;;;;;;;4.03;0.80;;;22.10;99.90;;;;;;5074557;28;20286;-73
2022/04/08 03:53:56;;;;;;;3.92;0.60;;;22.10;99.90;;;;;;5074235;28;20193;-75
2022/04/08 03:56:29;;;;;;;2.72;0.63;;;22.10;99.90;;;;;;5074484;28;20595;-87
2022/04/08 03:58:59;;;;;;;3.80;0.60;;;22.20;99.90;;;;;;5074002;28;20196;-80
2022/04/08 04:01:30;;;;;;;3.03;0.65;;;22.20;99.90;;;;;;5069413;28;20220;-80
2022/04/08 04:04:00;;;;;;;4.25;0.65;;;22.30;99.90;;;;;;5077329;28;20196;-80
2022/04/08 04:06:31;;;;;;;3.08;0.68;;;22.30;99.90;;;;;;5079733;28;20185;-85
2022/04/08 04:09:02;;;;;;;2.08;0.50;;;22.30;99.90;;;;;;5073658;28;20200;-85
2022/04/08 04:11:34;;;;;;;1.65;0.30;;;22.20;99.90;;;;;;5072935;28;20200;-83
2022/04/08 04:14:06;;;;;;;0.47;0.15;;;22.10;99.90;;;;;;5076118;28;20196;-83
2022/04/08 04:16:37;;;;;;;1.85;0.30;;;22.10;99.90;;;;;;5072923;28;20193;-84
2022/04/08 04:19:07;;;;;;;1.35;0.43;;;22.10;99.90;;;;;;5076122;28;20248;-69
2022/04/08 04:21:38;;;;;;;2.42;0.50;;;22.20;99.90;;;;;;5074127;28;20185;-70
2022/04/08 04:24:10;;;;;;;3.60;0.50;;;22.20;99.90;;;;;;5074494;28;20189;-69
2022/04/08 04:26:42;;;;;;;4.10;0.65;;;22.20;99.90;;;;;;5075138;28;20189;-77
2022/04/08 04:29:13;;;;;;;7.03;0.70;;;22.20;99.90;;;;;;5070569;28;20185;-70
2022/04/08 04:31:43;;;;;;;4.57;0.73;;;22.20;99.90;;;;;;5075425;28;20196;-77
2022/04/08 04:34:15;;;;;;;5.45;0.70;;;22.30;99.90;;;;;;5073668;28;20200;-80
2022/04/08 04:36:45;;;;;;;7.05;1.10;;;22.60;99.90;;;;;;5076966;28;20262;-70
2022/04/08 04:39:16;;;;;;;2.88;0.70;;;22.70;99.90;;;;;;5075456;28;20254;-69
2022/04/08 04:41:49;;;;;;;8.75;0.95;;;22.80;99.90;;;;;;5073452;28;20867;-68
2022/04/08 04:44:19;;;;;;;5.53;0.60;;;22.70;99.90;;;;;;5073657;28;20201;-74
2022/04/08 04:46:50;;;;;;;5.95;0.85;;;22.60;99.90;;;;;;5073952;28;20731;-85
2022/04/08 04:49:21;;;;;;;5.22;0.95;;;22.60;99.90;;;;;;5073827;28;20189;-84
2022/04/08 04:51:51;;;;;;;6.90;0.80;;;22.30;99.90;;;;;;5075741;28;20216;-87
2022/04/08 04:54:22;;;;;;;3.97;0.90;;;22.10;99.90;;;;;;5074932;28;20193;-83
2022/04/08 04:56:54;;;;;;;7.00;1.00;;;22.10;99.90;;;;;;5072995;28;20242;-78
2022/04/08 04:59:25;;;;;;;3.40;0.85;;;21.60;99.90;;;;;;5073364;28;20192;-68
2022/04/08 05:01:56;;;;;;;5.95;0.77;;;21.10;99.90;;;;;;5071802;28;20769;-78
2022/04/08 05:04:26;;;;;;;7.45;1.05;;;20.50;99.90;;;;;;5073734;28;20193;-82
2022/04/08 05:06:57;;;;;;;6.32;1.02;;;20.30;99.90;;;;;;5070515;28;20246;-70
2022/04/08 05:09:27;;;;;;;4.43;1.08;;;20.10;99.90;;;;;;5068003;28;20637;-85
2022/04/08 05:12:00;;;;;;;2.28;0.80;;;19.90;99.90;;;;;;5073075;28;20216;-69
2022/04/08 05:14:30;;;;;;;3.67;0.70;;;19.80;99.90;;;;;;5073062;28;20192;-75
2022/04/08 05:17:01;;;;;;;3.92;1.00;;;19.70;99.90;;;;;;5072963;28;20185;-68
2022/04/08 05:19:32;;;;;;;7.57;1.00;;;19.70;99.90;;;;;;5072828;28;20185;-68
2022/04/08 05:22:02;;;;;;;2.22;0.70;;;19.60;99.90;;;;;;5072370;28;20189;-68
2022/04/08 05:24:33;;;;;;;3.20;0.80;;;19.50;99.90;;;;;;5072784;28;20242;-70
2022/04/08 05:27:05;;;;;;;3.95;0.60;;;19.60;99.90;;;;;;5072367;28;20197;-70
2022/04/08 05:29:36;;;;;;;3.90;0.80;;;19.60;99.90;;;;;;5074163;28;20185;-69
2022/04/08 05:32:07;;;;;;;5.22;0.80;;;19.60;99.90;;;;;;5075452;28;20216;-69
2022/04/08 05:34:38;;;;;;;3.70;0.95;;;19.70;99.90;;;;;;5074591;28;20647;-68
2022/04/08 05:37:09;;;;;;;3.40;0.70;;;19.80;99.90;;;;;;5076530;28;20192;-69
2022/04/08 05:39:39;;;;;;;2.92;0.70;;;19.80;99.90;;;;;;5076630;28;20246;-69
2022/04/08 05:42:13;;;;;;;3.10;0.75;;;19.80;99.90;;;;;;5072020;28;20200;-69
2022/04/08 05:44:44;;;;;;;4.90;0.80;;;19.90;99.90;;;;;;5074892;28;20185;-69
2022/04/08 05:47:14;;;;;;;4.38;0.85;;;19.90;99.90;;;;;;5074618;28;20641;-70
2022/04/08 05:49:45;;;;;;;2.88;0.80;;;19.90;99.90;;;;;;5072161;28;20227;-69
2022/04/08 05:52:15;;;;;;;6.07;1.05;;;20.00;99.90;;;;;;5071994;28;20220;-68
2022/04/08 05:54:46;;;;;;;5.00;0.98;;;20.00;99.90;;;;;;5076229;28;20185;-69
2022/04/08 05:57:20;;;;;;;5.22;1.30;;;20.00;99.90;;;;;;5076229;28;20577;-69
2022/04/08 05:59:51;;;;;;;5.78;0.90;;;20.00;99.90;;;;;;5076303;28;20206;-69
2022/04/08 06:02:22;;;;;;;3.65;0.65;;;20.00;99.90;;;;;;5075665;28;20200;-69
2022/04/08 06:04:52;;;;;;;7.07;1.00;;;19.90;99.90;;;;;;5076513;28;20584;-69
2022/04/08 06:07:26;;;;;;;4.60;0.95;;;19.90;99.90;;;;;;5075953;28;20219;-68
2022/04/08 06:09:57;;;;;;;5.07;0.80;;;19.90;99.90;;;;;;5076061;28;20716;-69
2022/04/08 06:12:30;;;;;;;2.17;0.82;;;19.80;99.90;;;;;;5075629;28;20345;-69
2022/04/08 06:15:00;;;;;;;3.10;0.80;;;19.80;99.90;;;;;;5076039;28;20189;-68
2022/04/08 06:17:39;;;;;;;5.75;0.90;;;19.80;99.90;;;;;;5075682;28;20200;-69
2022/04/08 06:20:11;;;;;;;5.65;1.00;;;19.80;99.90;;;;;;5079721;28;20192;-75
2022/04/08 06:22:42;;;;;;;5.72;0.90;;;19.80;99.90;;;;;;5083200;28;20314;-68
2022/04/08 06:25:14;;;;;;;5.63;0.80;;;19.70;99.90;;;;;;5079817;28;20649;-70
2022/04/08 06:27:47;;;;;;;4.70;0.68;;;19.60;99.90;;;;;;5075623;28;20263;-68
2022/04/08 06:30:18;;;;;;;4.95;0.95;;;19.70;99.90;;;;;;5076374;28;20200;-68
2022/04/08 06:32:49;;;;;;;3.17;0.63;;;19.50;99.90;;;;;;5068017;28;20572;-68
2022/04/08 06:35:19;;;;;;;4.90;0.60;;;19.50;99.90;;;;;;5079114;28;20534;-68
2022/04/08 06:37:50;;;;;;;6.00;0.90;;;19.40;99.90;;;;;;5067995;28;20193;-68
2022/04/08 06:40:21;;;;;;;7.18;0.90;;;19.40;99.90;;;;;;5075825;28;20230;-68
2022/04/08 06:42:55;;;;;;;2.40;0.50;;;19.40;99.90;;;;;;5079854;28;20196;-68
2022/04/08 06:45:26;;;;;;;5.25;0.75;;;19.30;99.90;;;;;;5076441;28;20197;-68
2022/04/08 06:47:57;;;;;;;7.03;1.17;;;19.30;99.90;;;;;;5067995;28;20204;-68
2022/04/08 06:50:28;;;;;;;5.65;0.80;;;19.30;99.90;;;;;;5077875;28;20238;-69
2022/04/08 06:53:01;;;;;;;6.15;1.10;;;19.30;99.90;;;;;;5074942;28;20209;-69
2022/04/08 06:55:32;;;;;;;7.15;1.13;;;19.20;99.90;;;;;;5075345;28;20185;-67
2022/04/08 06:58:05;;;;;;;6.90;1.20;;;19.20;99.90;;;;;;5078637;28;20185;-69
2022/04/08 07:00:37;;;;;;;2.03;0.88;;;19.20;99.90;;;;;;5073860;28;20299;-69
2022/04/08 07:03:08;;;;;;;3.85;0.90;;;19.20;99.90;;;;;;5074781;28;20193;-73
2022/04/08 07:05:38;;;;;;;5.75;1.05;;;19.20;99.90;;;;;;5074146;28;20641;-68
2022/04/08 07:08:09;;;;;;;4.78;0.93;;;19.20;99.90;;;;;;5070515;28;20597;-69
2022/04/08 07:10:40;;;;;;;8.57;1.70;;;19.20;99.90;;;;;;5076093;28;20192;-68
2022/04/08 07:13:12;;;;;;;5.63;1.55;;;19.20;99.90;;;;;;5075641;28;20216;-68
2022/04/08 07:15:43;;;;;;;7.60;1.67;;;19.20;99.90;;;;;;5076722;28;20214;-68
2022/04/08 07:18:14;;;;;;;4.63;1.20;;;19.20;99.90;;;;;;5082783;28;20534;-68
2022/04/08 07:20:44;;;;;;;8.57;1.50;;;19.20;99.90;;;;;;5075541;28;20238;-69
2022/04/08 07:23:16;;;;;;;5.55;1.30;;;19.20;99.90;;;;;;5074954;28;20239;-69
2022/04/08 07:25:46;;;;;;;6.95;1.20;;;19.20;99.90;;;;;;5073664;28;20184;-68
2022/04/08 07:28:19;;;;;;;6.40;1.40;;;19.20;99.90;;;;;;5067187;28;20651;-68
2022/04/08 07:30:50;;;;;;;7.35;1.58;;;19.20;99.90;;;;;;5074331;28;20246;-68
2022/04/08 07:33:21;;;;;;;7.72;1.40;;;19.30;99.90;;;;;;5074369;28;20236;-68
2022/04/08 07:35:51;;;;;;;10.60;1.58;;;19.30;99.90;;;;;;5074457;28;20636;-68
2022/04/08 07:38:22;;;;;;;7.45;1.40;;;19.20;99.90;;;;;;5074618;28;20185;-68
2022/04/08 07:40:53;;;;;;;11.55;1.65;;;19.30;99.90;;;;;;5074225;28;20196;-69
2022/04/08 07:43:25;;;;;;;6.63;1.27;;;19.30;99.90;;;;;;5074542;28;20189;-67
2022/04/08 07:45:56;;;;;;;7.88;1.40;;;19.20;99.90;;;;;;5077545;28;20250;-68
2022/04/08 07:48:27;;;;;;;10.43;1.35;;;19.20;99.90;;;;;;5076098;28;20185;-80
2022/04/08 07:50:58;;;;;;;9.52;1.15;;;19.10;99.90;;;;;;5073876;28;20707;-85
2022/04/08 07:53:28;;;;;;;11.52;1.52;;;19.10;99.90;;;;;;5067028;28;20278;-68
2022/04/08 07:55:59;;;;;;;7.38;1.25;;;19.10;99.90;;;;;;5073208;28;20192;-68
2022/04/08 07:58:31;;;;;;;11.25;1.67;;;19.10;99.90;;;;;;5074789;28;20234;-70
2022/04/08 08:01:02;;;;;;;14.35;1.70;;;19.20;99.90;;;;;;5076727;28;20696;-69
2022/04/08 08:03:34;;;;;;;10.52;1.67;;;19.20;99.90;;;;;;5076017;28;20185;-69
2022/04/08 08:06:06;;;;;;;11.77;1.60;;;19.20;99.90;;;;;;5075073;28;20189;-69
2022/04/08 08:08:37;;;;;;;12.05;1.70;;;19.30;99.90;;;;;;5070361;28;20242;-69
2022/04/08 08:11:11;;;;;;;9.88;1.70;;;19.30;99.90;;;;;;5073462;28;20196;-68
2022/04/08 08:13:44;;;;;;;14.88;1.90;;;19.40;99.90;;;;;;5080101;28;20662;-68
2022/04/08 08:16:15;;;;;;;13.82;1.73;;;19.40;99.90;;;;;;5083052;28;20187;-68
2022/04/08 08:18:46;;;;;;;11.88;1.77;;;19.40;99.90;;;;;;5075644;28;20185;-68
2022/04/08 08:21:16;;;;;;;11.95;1.88;;;19.40;99.90;;;;;;5074741;28;20193;-68
2022/04/08 08:23:47;;;;;;;11.15;1.58;;;19.40;99.90;;;;;;5074451;28;20185;-70
2022/04/08 08:26:18;;;;;;;17.05;2.15;;;19.40;99.90;;;;;;5076092;28;20196;-69
2022/04/08 08:28:50;;;;;;;13.20;1.88;;;19.40;99.90;;;;;;5070470;28;20585;-68
2022/04/08 08:31:21;;;;;;;11.40;1.80;;;19.30;99.90;;;;;;5073200;28;20548;-68
2022/04/08 08:33:51;;;;;;;6.38;1.30;;;19.30;99.90;;;;;;5078590;28;20223;-68
2022/04/08 08:36:22;;;;;;;7.05;1.40;;;19.30;99.90;;;;;;5075882;28;20272;-73
2022/04/08 08:38:53;;;;;;;9.07;1.60;;;19.20;99.90;;;;;;5074391;28;20185;-67
2022/04/08 08:41:25;;;;;;;7.68;1.60;;;19.20;99.90;;;;;;5072998;28;20599;-68
2022/04/08 08:43:57;;;;;;;11.98;1.45;;;19.20;99.90;;;;;;5073122;28;20190;-67
2022/04/08 08:46:29;;;;;;;16.40;2.30;;;19.20;99.90;;;;;;5073374;28;20193;-67
2022/04/08 08:49:01;;;;;;;13.85;1.95;;;19.20;99.90;;;;;;5075553;28;20242;-68
2022/04/08 08:51:37;;;;;;;13.95;1.90;;;19.30;99.90;;;;;;5071387;28;20214;-68
2022/04/08 08:54:08;;;;;;;9.52;1.77;;;19.40;99.90;;;;;;5071523;28;20211;-67
2022/04/08 08:56:38;;;;;;;8.90;1.45;;;19.40;99.90;;;;;;5070156;28;20184;-66
2022/04/08 08:59:12;;;;;;;9.63;1.60;;;19.40;99.90;;;;;;5073870;28;20243;-67
2022/04/08 09:01:42;;;;;;;8.45;1.50;;;19.40;99.90;;;;;;5074267;28;20744;-68
2022/04/08 09:04:13;;;;;;;10.07;1.80;;;19.40;99.90;;;;;;5072192;28;20628;-69
2022/04/08 09:06:43;;;;;;;8.63;1.50;;;19.40;99.90;;;;;;5083947;28;20192;-68
2022/04/08 09:09:14;;;;;;;10.50;1.60;;;19.40;99.90;;;;;;5079452;28;20230;-70
2022/04/08 09:11:45;;;;;;;8.77;2.00;;;19.30;99.90;;;;;;5071107;28;20185;-72
2022/04/08 09:14:17;;;;;;;10.35;1.67;;;19.30;99.90;;;;;;5077055;28;20216;-68
2022/04/08 09:16:48;;;;;;;11.10;1.52;;;19.30;99.90;;;;;;5073619;28;20193;-69
2022/04/08 09:19:19;;;;;;;11.13;2.13;;;19.30;99.90;;;;;;5074149;28;20185;-69
2022/04/08 09:21:54;;;;;;;11.07;1.70;;;19.30;99.90;;;;;;5073675;28;20219;-68
2022/04/08 09:24:26;;;;;;;12.95;1.83;;;19.30;99.90;;;;;;5075938;28;20192;-67
2022/04/08 09:26:57;;;;;;;14.85;2.20;;;19.30;99.90;;;;;;5072431;28;20292;-68
2022/04/08 09:29:30;;;;;;;16.25;2.38;;;19.30;99.90;;;;;;5073852;28;20243;-71
2022/04/08 09:32:01;;;;;;;9.52;1.83;;;19.30;99.90;;;;;;5072731;28;20193;-71
2022/04/08 09:34:31;;;;;;;10.30;1.80;;;19.30;99.90;;;;;;5077707;28;20625;-70
2022/04/08 09:37:07;;;;;;;9.77;1.90;;;19.30;99.90;;;;;;5072750;28;20193;-70
2022/04/08 09:39:38;;;;;;;11.35;2.10;;;19.20;99.90;;;;;;5075405;28;20189;-70
2022/04/08 09:42:10;;;;;;;10.00;1.90;;;19.20;99.90;;;;;;5069320;28;20192;-69
2022/04/08 09:44:44;;;;;;;12.45;1.70;;;19.10;99.90;;;;;;5076362;28;20192;-69
2022/04/08 09:47:15;;;;;;;9.60;1.88;;;19.00;99.90;;;;;;5073417;28;20188;-70
2022/04/08 09:49:46;;;;;;;10.32;1.88;;;19.00;99.90;;;;;;5068301;28;20233;-70
2022/04/08 09:52:19;;;;;;;12.65;1.70;;;18.90;99.90;;;;;;5074578;28;20185;-71
2022/04/08 09:54:51;;;;;;;6.90;1.38;;;18.90;99.90;;;;;;5075343;28;20208;-70
2022/04/08 09:57:22;;;;;;;11.65;1.45;;;18.90;99.90;;;;;;5076128;28;20188;-70
2022/04/08 10:00:01;;;;;;;8.82;1.60;;;18.80;99.90;;;;;;5075287;28;20192;-70
2022/04/08 10:02:34;;;;;;;12.25;1.70;;;18.80;99.90;;;;;;5075060;28;20196;-70
2022/04/08 10:05:06;;;;;;;8.63;1.70;;;18.80;99.90;;;;;;5075657;28;20238;-70
2022/04/08 10:07:37;;;;;;;13.55;1.80;;;18.80;99.90;;;;;;5078048;28;20193;-71
2022/04/08 10:10:14;;;;;;;12.13;1.63;;;18.70;99.90;;;;;;5075223;28;20632;-69
2022/04/08 10:12:57;;;;;;;11.75;2.20;;;18.80;99.90;;;;;;5077790;28;20196;-70
2022/04/08 10:15:34;;;;;;;7.80;1.60;;;18.80;99.90;;;;;;5075775;28;20220;-69
2022/04/08 10:18:05;;;;;;;8.30;1.02;;;18.80;99.90;;;;;;5077841;28;20184;-69
2022/04/08 10:20:37;;;;;;;7.88;1.10;;;18.60;99.90;;;;;;5083777;28;20186;-71
2022/04/08 10:23:10;;;;;;;7.57;1.45;;;18.60;99.90;;;;;;5075204;28;20197;-68
2022/04/08 10:25:43;;;;;;;10.20;1.50;;;18.60;99.90;;;;;;5072622;28;20201;-68
2022/04/08 10:28:14;;;;;;;6.88;1.20;;;18.80;99.90;;;;;;5075944;28;20189;-68
2022/04/08 10:30:50;;;;;;;15.57;1.35;;;18.90;99.90;;;;;;5077018;28;20189;-68
2022/04/08 10:33:28;;;;;;;12.82;1.30;;;19.00;99.90;;;;;;5084199;28;20193;-69
2022/04/08 10:36:04;;;;;;;9.38;1.40;;;19.10;99.90;;;;;;5078071;28;20231;-70
2022/04/08 10:38:41;;;;;;;11.50;1.50;;;19.00;99.90;;;;;;5074747;28;20241;-69
2022/04/08 10:41:12;;;;;;;9.63;1.42;;;19.10;99.90;;;;;;5075468;28;20193;-68
2022/04/08 10:43:46;;;;;;;9.18;1.60;;;19.10;99.90;;;;;;5076669;28;20189;-69
2022/04/08 10:46:32;;;;;;;14.07;1.65;;;19.10;99.90;;;;;;5073860;28;20204;-68
2022/04/08 10:49:02;;;;;;;9.80;1.65;;;19.10;99.90;;;;;;5075317;28;20671;-68
2022/04/08 10:51:33;;;;;;;12.75;1.90;;;19.10;99.90;;;;;;5077022;28;20604;-68
2022/04/08 10:54:07;;;;;;;15.13;1.85;;;19.10;99.90;;;;;;5078629;28;20266;-69
2022/04/08 10:56:38;;;;;;;12.38;1.50;;;19.10;99.90;;;;;;5079800;28;20185;-71
2022/04/08 10:59:08;;;;;;;14.20;1.98;;;19.20;99.90;;;;;;5075233;28;20193;-68
2022/04/08 11:01:50;;;;;;;13.05;1.92;;;19.20;99.90;;;;;;5074388;28;20225;-69
2022/04/08 11:04:22;;;;;;;15.52;2.25;;;19.10;99.90;;;;;;5073379;28;20197;-69
2022/04/08 11:06:53;;;;;;;12.55;2.85;;;19.10;99.90;;;;;;5074623;28;20185;-72
2022/04/08 11:09:24;;;;;;;16.10;2.90;;;19.10;99.90;;;;;;5074784;28;20189;-68
2022/04/08 11:11:57;;;;;;;14.60;2.50;;;19.20;99.90;;;;;;5077864;28;20635;-71
2022/04/08 11:14:29;;;;;;;13.57;2.50;;;19.20;99.90;;;;;;5076122;28;20684;-70
2022/04/08 11:17:02;;;;;;;11.05;2.50;;;19.20;99.90;;;;;;5078166;28;20181;-69
2022/04/08 11:19:34;;;;;;;10.73;2.00;;;19.30;99.90;;;;;;5070730;28;20185;-72
2022/04/08 11:22:12;;;;;;;12.60;1.90;;;19.30;99.90;;;;;;5073095;28;20226;-68
2022/04/08 11:24:43;;;;;;;12.85;1.70;;;19.30;99.90;;;;;;5071662;28;20188;-68
2022/04/08 11:27:14;;;;;;;11.65;1.83;;;19.20;99.90;;;;;;5072610;28;20204;-70
2022/04/08 11:29:44;;;;;;;11.02;2.20;;;19.20;99.90;;;;;;5074513;28;20698;-69
2022/04/08 11:32:17;;;;;;;11.25;2.03;;;19.20;99.90;;;;;;5070061;28;20182;-69
2022/04/08 11:34:48;;;;;;;10.20;1.90;;;19.10;99.90;;;;;;5074946;28;20257;-69
2022/04/08 11:37:27;;;;;;;7.25;1.70;;;19.10;99.90;;;;;;5074194;28;20192;-70
2022/04/08 11:40:11;;;;;;;13.07;2.10;;;19.00;99.90;;;;;;5070149;28;20246;-68
2022/04/08 11:42:42;;;;;;;11.13;2.10;;;19.00;99.90;;;;;;5075301;28;20197;-69
2022/04/08 11:45:14;;;;;;;12.68;1.75;;;19.00;99.90;;;;;;5072502;28;20557;-69
2022/04/08 11:47:51;;;;;;;13.40;2.35;;;18.90;99.90;;;;;;5073078;28;20181;-69
2022/04/08 11:50:27;;;;;;;13.88;1.80;;;18.90;99.90;;;;;;5070503;28;20325;-79
2022/04/08 11:53:01;;;;;;;9.48;1.50;;;19.00;99.90;;;;;;5069729;28;20196;-70
2022/04/08 11:55:32;;;;;;;13.02;1.58;;;19.00;99.90;;;;;;5072093;28;20212;-69
2022/04/08 11:58:02;;;;;;;15.80;1.98;;;19.00;99.90;;;;;;5069650;28;20185;-69
2022/04/08 12:00:33;;;;;;;12.23;1.60;;;19.20;99.90;;;;;;5072045;28;20213;-69
2022/04/08 12:03:06;;;;;;;11.00;1.52;;;19.20;99.90;;;;;;5070170;28;20185;-70
2022/04/08 12:05:46;;;;;;;10.68;1.65;;;19.20;99.90;;;;;;5069894;28;20189;-69
2022/04/08 12:08:17;;;;;;;9.43;1.63;;;19.20;99.90;;;;;;5068523;28;20254;-68
2022/04/08 12:10:52;;;;;;;16.77;5.28;;;19.20;99.90;;;;;;5069149;28;20193;-69
2022/04/08 12:13:24;;;;;;;15.50;4.03;;;19.10;99.90;;;;;;5075374;28;20276;-69
2022/04/08 12:15:58;;;;;;;11.52;3.53;;;19.10;99.90;;;;;;5071788;28;20215;-69
2022/04/08 12:18:32;;;;;;;8.38;2.78;;;19.10;99.90;;;;;;5069877;28;20189;-69
2022/04/08 12:21:08;;;;;;;7.40;1.25;;;19.00;99.90;;;;;;5072757;28;20188;-69
2022/04/08 12:23:42;;;;;;;9.02;1.55;;;19.00;99.90;;;;;;5071522;28;20192;-69
2022/04/08 12:26:15;;;;;;;6.43;1.35;;;18.90;99.90;;;;;;5074889;28;20197;-70
2022/04/08 12:28:47;;;;;;;17.98;2.55;;;18.90;99.90;;;;;;5069448;28;20718;-69
2022/04/08 12:31:20;;;;;;;7.13;1.20;;;18.90;99.90;;;;;;5071086;28;20181;-70
2022/04/08 12:33:53;;;;;;;13.20;1.52;;;18.90;99.90;;;;;;5069927;28;20202;-69
2022/04/08 12:36:24;;;;;;;11.00;1.83;;;18.90;99.90;;;;;;5071565;28;20213;-69
2022/04/08 12:38:55;;;;;;;11.45;1.63;;;18.90;99.90;;;;;;5072070;28;20185;-69
2022/04/08 12:41:25;;;;;;;11.57;1.50;;;19.00;99.90;;;;;;5075985;28;20756;-69
2022/04/08 12:43:57;;;;;;;9.00;1.13;;;19.10;99.90;;;;;;5066216;28;20193;-70
2022/04/08 12:46:28;;;;;;;13.90;3.20;;;19.10;99.90;;;;;;5062888;28;20193;-68
2022/04/08 12:49:01;;;;;;;10.57;2.03;;;19.10;99.90;;;;;;5077548;28;20184;-69
2022/04/08 12:51:31;;;;;;;8.38;1.50;;;19.20;99.90;;;;;;5067860;28;20190;-69
2022/04/08 12:54:02;;;;;;;11.20;1.50;;;19.20;99.90;;;;;;5069163;28;20258;-69
2022/04/08 12:56:33;;;;;;;18.98;1.75;;;19.20;99.90;;;;;;5068609;28;20910;-68
2022/04/08 12:59:04;;;;;;;9.20;1.20;;;19.10;99.90;;;;;;5071397;28;20239;-68
2022/04/08 13:01:36;;;;;;;12.63;1.85;;;19.10;99.90;;;;;;5069380;28;20270;-71
2022/04/08 13:04:08;;;;;;;4.78;1.00;;;19.10;99.90;;;;;;5075111;28;20196;-69
2022/04/08 13:06:39;;;;;;;8.02;1.15;;;19.10;99.90;;;;;;5071307;28;20189;-69